sensor_id;sensor_type;location;lat;lon;timestamp;P1;durP1;ratioP1;P2;durP2;ratioP2
48963;SDS011;34776;48.180;16.420;2023-03-14T00:01:57;5.75;;;3.90;;
48963;SDS011;34776;48.180;16.420;2023-03-14T00:04:23;6.03;;;3.80;;
48963;SDS011;34776;48.180;16.420;2023-03-14T00:06:48;8.40;;;4.07;;
48963;SDS011;34776;48.180;16.420;2023-03-14T00:09:14;6.38;;;3.58;;
48963;SDS011;34776;48.180;16.420;2023-03-14T00:11:40;6.80;;;3.92;;
48963;SDS011;34776;48.180;16.420;2023-03-14T00:14:05;7.30;;;3.75;;
48963;SDS011;34776;48.180;16.420;2023-03-14T00:16:31;10.95;;;3.95;;
48963;SDS011;34776;48.180;16.420;2023-03-14T00:18:57;6.90;;;3.90;;
48963;SDS011;34776;48.180;16.420;2023-03-14T00:21:24;6.47;;;3.65;;
48963;SDS011;34776;48.180;16.420;2023-03-14T00:23:49;6.78;;;3.88;;
48963;SDS011;34776;48.180;16.420;2023-03-14T00:26:16;5.18;;;3.95;;
48963;SDS011;34776;48.180;16.420;2023-03-14T00:28:43;7.20;;;3.35;;
48963;SDS011;34776;48.180;16.420;2023-03-14T00:31:09;7.63;;;3.58;;
48963;SDS011;34776;48.180;16.420;2023-03-14T00:33:36;5.90;;;3.58;;
48963;SDS011;34776;48.180;16.420;2023-03-14T00:36:03;4.55;;;3.17;;
48963;SDS011;34776;48.180;16.420;2023-03-14T00:38:30;6.18;;;3.47;;
48963;SDS011;34776;48.180;16.420;2023-03-14T00:40:57;6.88;;;3.80;;
48963;SDS011;34776;48.180;16.420;2023-03-14T00:43:23;6.35;;;3.50;;
48963;SDS011;34776;48.180;16.420;2023-03-14T00:45:49;6.50;;;3.80;;
48963;SDS011;34776;48.180;16.420;2023-03-14T00:48:15;4.88;;;3.28;;
48963;SDS011;34776;48.180;16.420;2023-03-14T00:50:40;4.50;;;3.45;;
48963;SDS011;34776;48.180;16.420;2023-03-14T00:53:06;5.15;;;3.20;;
48963;SDS011;34776;48.180;16.420;2023-03-14T00:55:31;4.68;;;3.08;;
48963;SDS011;34776;48.180;16.420;2023-03-14T00:57:56;7.22;;;3.30;;
48963;SDS011;34776;48.180;16.420;2023-03-14T01:00:22;5.13;;;3.55;;
48963;SDS011;34776;48.180;16.420;2023-03-14T01:02:47;5.40;;;3.20;;
48963;SDS011;34776;48.180;16.420;2023-03-14T01:05:13;5.90;;;3.47;;
48963;SDS011;34776;48.180;16.420;2023-03-14T01:07:38;7.00;;;3.03;;
48963;SDS011;34776;48.180;16.420;2023-03-14T01:10:04;4.35;;;3.20;;
48963;SDS011;34776;48.180;16.420;2023-03-14T01:12:31;6.30;;;3.17;;
48963;SDS011;34776;48.180;16.420;2023-03-14T01:14:56;5.13;;;3.10;;
48963;SDS011;34776;48.180;16.420;2023-03-14T01:17:22;5.22;;;3.05;;
48963;SDS011;34776;48.180;16.420;2023-03-14T01:19:47;7.45;;;3.20;;
48963;SDS011;34776;48.180;16.420;2023-03-14T01:22:13;5.10;;;2.95;;
48963;SDS011;34776;48.180;16.420;2023-03-14T01:24:38;5.88;;;2.50;;
48963;SDS011;34776;48.180;16.420;2023-03-14T01:27:03;3.30;;;2.70;;
48963;SDS011;34776;48.180;16.420;2023-03-14T01:29:29;4.47;;;3.00;;
48963;SDS011;34776;48.180;16.420;2023-03-14T01:31:54;5.68;;;3.20;;
48963;SDS011;34776;48.180;16.420;2023-03-14T01:34:21;5.13;;;3.00;;
48963;SDS011;34776;48.180;16.420;2023-03-14T01:36:46;5.38;;;3.15;;
48963;SDS011;34776;48.180;16.420;2023-03-14T01:39:12;6.10;;;3.05;;
48963;SDS011;34776;48.180;16.420;2023-03-14T01:41:38;3.60;;;3.17;;
48963;SDS011;34776;48.180;16.420;2023-03-14T01:44:04;6.03;;;3.00;;
48963;SDS011;34776;48.180;16.420;2023-03-14T01:51:47;4.22;;;2.83;;
48963;SDS011;34776;48.180;16.420;2023-03-14T01:54:39;5.20;;;2.88;;
48963;SDS011;34776;48.180;16.420;2023-03-14T01:57:08;5.30;;;3.10;;
48963;SDS011;34776;48.180;16.420;2023-03-14T01:59:42;5.25;;;2.90;;
48963;SDS011;34776;48.180;16.420;2023-03-14T02:02:12;5.65;;;3.17;;
48963;SDS011;34776;48.180;16.420;2023-03-14T02:04:39;6.22;;;3.17;;
48963;SDS011;34776;48.180;16.420;2023-03-14T02:07:09;5.80;;;3.10;;
48963;SDS011;34776;48.180;16.420;2023-03-14T02:09:55;6.68;;;3.30;;
48963;SDS011;34776;48.180;16.420;2023-03-14T02:12:21;7.07;;;3.00;;
48963;SDS011;34776;48.180;16.420;2023-03-14T02:14:47;7.10;;;3.80;;
48963;SDS011;34776;48.180;16.420;2023-03-14T02:17:16;8.10;;;3.38;;
48963;SDS011;34776;48.180;16.420;2023-03-14T02:22:12;3.55;;;2.95;;
48963;SDS011;34776;48.180;16.420;2023-03-14T02:27:37;4.55;;;2.92;;
48963;SDS011;34776;48.180;16.420;2023-03-14T02:30:04;5.20;;;2.92;;
48963;SDS011;34776;48.180;16.420;2023-03-14T02:32:36;3.90;;;2.85;;
48963;SDS011;34776;48.180;16.420;2023-03-14T02:35:06;4.40;;;2.95;;
48963;SDS011;34776;48.180;16.420;2023-03-14T02:37:43;4.10;;;3.33;;
48963;SDS011;34776;48.180;16.420;2023-03-14T02:40:13;4.10;;;2.95;;
48963;SDS011;34776;48.180;16.420;2023-03-14T02:42:39;5.75;;;3.15;;
48963;SDS011;34776;48.180;16.420;2023-03-14T02:47:33;6.85;;;3.67;;
48963;SDS011;34776;48.180;16.420;2023-03-14T02:50:06;5.03;;;3.22;;
48963;SDS011;34776;48.180;16.420;2023-03-14T02:52:35;4.60;;;3.30;;
48963;SDS011;34776;48.180;16.420;2023-03-14T02:55:00;7.60;;;3.58;;
48963;SDS011;34776;48.180;16.420;2023-03-14T02:57:26;6.80;;;3.55;;
48963;SDS011;34776;48.180;16.420;2023-03-14T02:59:51;6.18;;;3.17;;
48963;SDS011;34776;48.180;16.420;2023-03-14T03:02:17;6.65;;;3.70;;
48963;SDS011;34776;48.180;16.420;2023-03-14T03:04:42;5.38;;;3.47;;
48963;SDS011;34776;48.180;16.420;2023-03-14T03:07:07;6.32;;;3.55;;
48963;SDS011;34776;48.180;16.420;2023-03-14T03:09:33;6.10;;;4.25;;
48963;SDS011;34776;48.180;16.420;2023-03-14T03:11:58;6.85;;;3.97;;
48963;SDS011;34776;48.180;16.420;2023-03-14T03:14:24;8.52;;;3.92;;
48963;SDS011;34776;48.180;16.420;2023-03-14T03:16:49;4.85;;;3.30;;
48963;SDS011;34776;48.180;16.420;2023-03-14T03:19:15;7.38;;;3.80;;
48963;SDS011;34776;48.180;16.420;2023-03-14T03:21:42;5.32;;;3.50;;
48963;SDS011;34776;48.180;16.420;2023-03-14T03:24:08;8.25;;;4.57;;
48963;SDS011;34776;48.180;16.420;2023-03-14T03:26:34;7.28;;;3.95;;
48963;SDS011;34776;48.180;16.420;2023-03-14T03:28:59;7.75;;;4.55;;
48963;SDS011;34776;48.180;16.420;2023-03-14T03:31:25;5.35;;;3.95;;
48963;SDS011;34776;48.180;16.420;2023-03-14T03:33:50;9.13;;;4.10;;
48963;SDS011;34776;48.180;16.420;2023-03-14T03:36:17;5.90;;;4.40;;
48963;SDS011;34776;48.180;16.420;2023-03-14T03:38:46;8.60;;;4.45;;
48963;SDS011;34776;48.180;16.420;2023-03-14T03:41:11;5.43;;;3.88;;
48963;SDS011;34776;48.180;16.420;2023-03-14T03:43:37;6.60;;;3.97;;
48963;SDS011;34776;48.180;16.420;2023-03-14T03:46:03;8.00;;;3.92;;
48963;SDS011;34776;48.180;16.420;2023-03-14T03:48:29;5.32;;;3.60;;
48963;SDS011;34776;48.180;16.420;2023-03-14T03:50:55;7.20;;;3.78;;
48963;SDS011;34776;48.180;16.420;2023-03-14T03:53:20;13.02;;;7.13;;
48963;SDS011;34776;48.180;16.420;2023-03-14T03:55:46;14.93;;;8.80;;
48963;SDS011;34776;48.180;16.420;2023-03-14T03:58:11;27.05;;;13.07;;
48963;SDS011;34776;48.180;16.420;2023-03-14T04:00:36;9.48;;;5.95;;
48963;SDS011;34776;48.180;16.420;2023-03-14T04:03:02;9.10;;;5.97;;
48963;SDS011;34776;48.180;16.420;2023-03-14T04:05:27;8.95;;;4.80;;
48963;SDS011;34776;48.180;16.420;2023-03-14T04:07:52;7.97;;;4.65;;
48963;SDS011;34776;48.180;16.420;2023-03-14T04:10:18;12.82;;;8.48;;
48963;SDS011;34776;48.180;16.420;2023-03-14T04:12:43;18.88;;;5.82;;
48963;SDS011;34776;48.180;16.420;2023-03-14T04:15:09;8.20;;;5.13;;
48963;SDS011;34776;48.180;16.420;2023-03-14T04:17:34;7.05;;;4.50;;
48963;SDS011;34776;48.180;16.420;2023-03-14T04:20:00;7.68;;;4.50;;
48963;SDS011;34776;48.180;16.420;2023-03-14T04:22:25;6.25;;;5.20;;
48963;SDS011;34776;48.180;16.420;2023-03-14T04:24:50;10.48;;;6.88;;
48963;SDS011;34776;48.180;16.420;2023-03-14T04:27:16;9.32;;;6.22;;
48963;SDS011;34776;48.180;16.420;2023-03-14T04:29:42;6.65;;;5.05;;
48963;SDS011;34776;48.180;16.420;2023-03-14T04:32:07;6.75;;;5.13;;
48963;SDS011;34776;48.180;16.420;2023-03-14T04:34:33;8.02;;;4.85;;
48963;SDS011;34776;48.180;16.420;2023-03-14T04:36:58;7.93;;;5.45;;
48963;SDS011;34776;48.180;16.420;2023-03-14T04:39:24;5.45;;;4.60;;
48963;SDS011;34776;48.180;16.420;2023-03-14T04:41:49;6.05;;;4.40;;
48963;SDS011;34776;48.180;16.420;2023-03-14T04:44:14;7.75;;;4.45;;
48963;SDS011;34776;48.180;16.420;2023-03-14T04:46:40;5.03;;;4.15;;
48963;SDS011;34776;48.180;16.420;2023-03-14T04:49:05;6.57;;;4.05;;
48963;SDS011;34776;48.180;16.420;2023-03-14T04:51:30;7.55;;;4.53;;
48963;SDS011;34776;48.180;16.420;2023-03-14T04:53:55;6.40;;;4.35;;
48963;SDS011;34776;48.180;16.420;2023-03-14T04:56:21;4.82;;;3.85;;
48963;SDS011;34776;48.180;16.420;2023-03-14T04:58:46;7.30;;;4.63;;
48963;SDS011;34776;48.180;16.420;2023-03-14T05:01:12;6.68;;;4.82;;
48963;SDS011;34776;48.180;16.420;2023-03-14T05:03:37;6.38;;;4.72;;
48963;SDS011;34776;48.180;16.420;2023-03-14T05:06:03;7.50;;;4.57;;
48963;SDS011;34776;48.180;16.420;2023-03-14T05:08:29;6.57;;;5.05;;
48963;SDS011;34776;48.180;16.420;2023-03-14T05:10:56;7.97;;;4.72;;
48963;SDS011;34776;48.180;16.420;2023-03-14T05:13:22;10.55;;;5.03;;
48963;SDS011;34776;48.180;16.420;2023-03-14T05:15:48;6.07;;;4.35;;
48963;SDS011;34776;48.180;16.420;2023-03-14T05:18:15;5.60;;;4.28;;
48963;SDS011;34776;48.180;16.420;2023-03-14T05:20:41;5.65;;;4.50;;
48963;SDS011;34776;48.180;16.420;2023-03-14T05:23:08;6.65;;;4.43;;
48963;SDS011;34776;48.180;16.420;2023-03-14T05:25:33;7.45;;;4.35;;
48963;SDS011;34776;48.180;16.420;2023-03-14T05:27:59;5.97;;;4.30;;
48963;SDS011;34776;48.180;16.420;2023-03-14T05:30:24;10.60;;;5.07;;
48963;SDS011;34776;48.180;16.420;2023-03-14T05:32:49;7.60;;;4.80;;
48963;SDS011;34776;48.180;16.420;2023-03-14T05:35:15;11.93;;;6.00;;
48963;SDS011;34776;48.180;16.420;2023-03-14T05:37:40;7.78;;;5.43;;
48963;SDS011;34776;48.180;16.420;2023-03-14T05:40:06;7.63;;;4.95;;
48963;SDS011;34776;48.180;16.420;2023-03-14T05:42:32;11.52;;;6.88;;
48963;SDS011;34776;48.180;16.420;2023-03-14T05:44:57;10.00;;;5.40;;
48963;SDS011;34776;48.180;16.420;2023-03-14T05:47:23;9.88;;;6.65;;
48963;SDS011;34776;48.180;16.420;2023-03-14T05:49:48;7.07;;;5.32;;
48963;SDS011;34776;48.180;16.420;2023-03-14T05:52:14;8.57;;;4.65;;
48963;SDS011;34776;48.180;16.420;2023-03-14T05:54:39;10.05;;;4.80;;
48963;SDS011;34776;48.180;16.420;2023-03-14T05:57:04;8.48;;;5.20;;
48963;SDS011;34776;48.180;16.420;2023-03-14T05:59:30;7.38;;;4.97;;
48963;SDS011;34776;48.180;16.420;2023-03-14T06:01:55;6.18;;;4.47;;
48963;SDS011;34776;48.180;16.420;2023-03-14T06:04:20;12.90;;;9.27;;
48963;SDS011;34776;48.180;16.420;2023-03-14T06:06:46;13.00;;;6.65;;
48963;SDS011;34776;48.180;16.420;2023-03-14T06:09:11;8.70;;;4.93;;
48963;SDS011;34776;48.180;16.420;2023-03-14T06:11:36;7.88;;;4.72;;
48963;SDS011;34776;48.180;16.420;2023-03-14T06:14:02;18.98;;;12.50;;
48963;SDS011;34776;48.180;16.420;2023-03-14T06:16:27;11.20;;;5.20;;
48963;SDS011;34776;48.180;16.420;2023-03-14T06:18:52;12.90;;;5.32;;
48963;SDS011;34776;48.180;16.420;2023-03-14T06:21:18;9.77;;;4.68;;
48963;SDS011;34776;48.180;16.420;2023-03-14T06:23:44;8.63;;;4.50;;
48963;SDS011;34776;48.180;16.420;2023-03-14T06:26:10;7.90;;;5.03;;
48963;SDS011;34776;48.180;16.420;2023-03-14T06:28:36;7.97;;;4.80;;
48963;SDS011;34776;48.180;16.420;2023-03-14T06:31:02;7.85;;;4.68;;
48963;SDS011;34776;48.180;16.420;2023-03-14T06:33:28;7.68;;;5.13;;
48963;SDS011;34776;48.180;16.420;2023-03-14T06:35:54;5.90;;;4.45;;
48963;SDS011;34776;48.180;16.420;2023-03-14T06:38:19;8.25;;;4.75;;
48963;SDS011;34776;48.180;16.420;2023-03-14T06:40:44;7.18;;;4.78;;
48963;SDS011;34776;48.180;16.420;2023-03-14T06:43:10;8.32;;;4.60;;
48963;SDS011;34776;48.180;16.420;2023-03-14T06:45:35;5.38;;;4.35;;
48963;SDS011;34776;48.180;16.420;2023-03-14T06:48:01;6.72;;;4.90;;
48963;SDS011;34776;48.180;16.420;2023-03-14T06:50:26;7.32;;;4.70;;
48963;SDS011;34776;48.180;16.420;2023-03-14T06:52:51;9.63;;;5.75;;
48963;SDS011;34776;48.180;16.420;2023-03-14T06:55:17;9.75;;;5.68;;
48963;SDS011;34776;48.180;16.420;2023-03-14T06:57:42;9.35;;;5.88;;
48963;SDS011;34776;48.180;16.420;2023-03-14T07:00:09;10.10;;;6.00;;
48963;SDS011;34776;48.180;16.420;2023-03-14T07:02:35;7.18;;;5.50;;
48963;SDS011;34776;48.180;16.420;2023-03-14T07:05:01;10.00;;;5.38;;
48963;SDS011;34776;48.180;16.420;2023-03-14T07:07:26;10.65;;;5.30;;
48963;SDS011;34776;48.180;16.420;2023-03-14T07:09:53;6.40;;;4.70;;
48963;SDS011;34776;48.180;16.420;2023-03-14T07:12:18;6.35;;;4.93;;
48963;SDS011;34776;48.180;16.420;2023-03-14T07:14:44;8.88;;;4.60;;
48963;SDS011;34776;48.180;16.420;2023-03-14T07:17:09;8.45;;;5.05;;
48963;SDS011;34776;48.180;16.420;2023-03-14T07:19:34;6.70;;;4.78;;
48963;SDS011;34776;48.180;16.420;2023-03-14T07:22:00;10.65;;;4.97;;
48963;SDS011;34776;48.180;16.420;2023-03-14T07:24:25;6.00;;;4.80;;
48963;SDS011;34776;48.180;16.420;2023-03-14T07:26:51;6.50;;;4.70;;
48963;SDS011;34776;48.180;16.420;2023-03-14T07:29:17;9.90;;;5.50;;
48963;SDS011;34776;48.180;16.420;2023-03-14T07:31:42;11.00;;;4.65;;
48963;SDS011;34776;48.180;16.420;2023-03-14T07:34:07;7.18;;;5.13;;
48963;SDS011;34776;48.180;16.420;2023-03-14T07:36:33;8.80;;;5.07;;
48963;SDS011;34776;48.180;16.420;2023-03-14T07:38:58;7.32;;;4.15;;
48963;SDS011;34776;48.180;16.420;2023-03-14T07:41:24;7.68;;;4.97;;
48963;SDS011;34776;48.180;16.420;2023-03-14T07:43:49;10.40;;;3.97;;
48963;SDS011;34776;48.180;16.420;2023-03-14T07:46:18;9.45;;;4.57;;
48963;SDS011;34776;48.180;16.420;2023-03-14T07:48:43;8.02;;;4.30;;
48963;SDS011;34776;48.180;16.420;2023-03-14T07:51:09;6.35;;;3.83;;
48963;SDS011;34776;48.180;16.420;2023-03-14T07:53:34;6.85;;;4.22;;
48963;SDS011;34776;48.180;16.420;2023-03-14T07:55:59;7.13;;;3.97;;
48963;SDS011;34776;48.180;16.420;2023-03-14T07:58:25;5.25;;;3.47;;
48963;SDS011;34776;48.180;16.420;2023-03-14T08:00:51;7.75;;;3.65;;
48963;SDS011;34776;48.180;16.420;2023-03-14T08:03:17;9.85;;;4.40;;
48963;SDS011;34776;48.180;16.420;2023-03-14T08:05:43;10.75;;;4.63;;
48963;SDS011;34776;48.180;16.420;2023-03-14T08:08:08;8.25;;;4.50;;
48963;SDS011;34776;48.180;16.420;2023-03-14T08:10:34;8.43;;;4.20;;
48963;SDS011;34776;48.180;16.420;2023-03-14T08:13:00;6.43;;;3.90;;
48963;SDS011;34776;48.180;16.420;2023-03-14T08:15:26;6.03;;;3.63;;
48963;SDS011;34776;48.180;16.420;2023-03-14T08:17:53;4.60;;;3.45;;
48963;SDS011;34776;48.180;16.420;2023-03-14T08:20:23;5.68;;;3.92;;
48963;SDS011;34776;48.180;16.420;2023-03-14T08:22:50;8.38;;;4.28;;
48963;SDS011;34776;48.180;16.420;2023-03-14T08:25:15;6.55;;;4.22;;
48963;SDS011;34776;48.180;16.420;2023-03-14T08:27:41;6.10;;;3.78;;
48963;SDS011;34776;48.180;16.420;2023-03-14T08:30:08;5.50;;;3.70;;
48963;SDS011;34776;48.180;16.420;2023-03-14T08:32:36;6.28;;;4.28;;
48963;SDS011;34776;48.180;16.420;2023-03-14T08:35:01;7.95;;;5.10;;
48963;SDS011;34776;48.180;16.420;2023-03-14T08:37:27;10.00;;;4.95;;
48963;SDS011;34776;48.180;16.420;2023-03-14T08:39:53;5.65;;;3.90;;
48963;SDS011;34776;48.180;16.420;2023-03-14T08:42:19;10.70;;;4.57;;
48963;SDS011;34776;48.180;16.420;2023-03-14T08:44:44;7.88;;;4.53;;
48963;SDS011;34776;48.180;16.420;2023-03-14T08:47:09;5.35;;;3.88;;
48963;SDS011;34776;48.180;16.420;2023-03-14T08:49:35;7.40;;;4.05;;
48963;SDS011;34776;48.180;16.420;2023-03-14T08:52:01;9.68;;;4.63;;
48963;SDS011;34776;48.180;16.420;2023-03-14T08:54:28;14.25;;;4.70;;
48963;SDS011;34776;48.180;16.420;2023-03-14T08:56:54;10.77;;;4.18;;
48963;SDS011;34776;48.180;16.420;2023-03-14T08:59:19;8.73;;;4.88;;
48963;SDS011;34776;48.180;16.420;2023-03-14T09:01:44;13.68;;;5.00;;
48963;SDS011;34776;48.180;16.420;2023-03-14T09:04:10;10.02;;;5.15;;
48963;SDS011;34776;48.180;16.420;2023-03-14T09:06:35;13.85;;;5.00;;
48963;SDS011;34776;48.180;16.420;2023-03-14T09:09:01;12.70;;;4.95;;
48963;SDS011;34776;48.180;16.420;2023-03-14T09:11:27;10.27;;;4.90;;
48963;SDS011;34776;48.180;16.420;2023-03-14T09:13:52;8.30;;;5.03;;
48963;SDS011;34776;48.180;16.420;2023-03-14T09:16:17;8.10;;;4.60;;
48963;SDS011;34776;48.180;16.420;2023-03-14T09:18:43;14.75;;;5.63;;
48963;SDS011;34776;48.180;16.420;2023-03-14T09:21:08;9.93;;;6.00;;
48963;SDS011;34776;48.180;16.420;2023-03-14T09:23:34;9.45;;;5.35;;
48963;SDS011;34776;48.180;16.420;2023-03-14T09:25:59;12.32;;;5.03;;
48963;SDS011;34776;48.180;16.420;2023-03-14T09:28:25;23.77;;;7.50;;
48963;SDS011;34776;48.180;16.420;2023-03-14T09:30:51;27.60;;;6.85;;
48963;SDS011;34776;48.180;16.420;2023-03-14T09:33:17;8.95;;;5.15;;
48963;SDS011;34776;48.180;16.420;2023-03-14T09:35:43;32.15;;;5.55;;
48963;SDS011;34776;48.180;16.420;2023-03-14T09:38:08;16.67;;;5.57;;
48963;SDS011;34776;48.180;16.420;2023-03-14T09:40:34;18.40;;;5.10;;
48963;SDS011;34776;48.180;16.420;2023-03-14T09:43:01;24.02;;;5.75;;
48963;SDS011;34776;48.180;16.420;2023-03-14T09:45:36;11.65;;;5.50;;
48963;SDS011;34776;48.180;16.420;2023-03-14T09:48:05;15.02;;;4.97;;
48963;SDS011;34776;48.180;16.420;2023-03-14T09:50:41;14.95;;;5.90;;
48963;SDS011;34776;48.180;16.420;2023-03-14T09:53:12;9.73;;;5.65;;
48963;SDS011;34776;48.180;16.420;2023-03-14T09:55:42;18.70;;;7.50;;
48963;SDS011;34776;48.180;16.420;2023-03-14T09:58:12;26.35;;;6.40;;
48963;SDS011;34776;48.180;16.420;2023-03-14T10:05:39;25.80;;;5.50;;
48963;SDS011;34776;48.180;16.420;2023-03-14T10:08:11;14.70;;;4.50;;
48963;SDS011;34776;48.180;16.420;2023-03-14T10:10:37;17.38;;;4.22;;
48963;SDS011;34776;48.180;16.420;2023-03-14T10:15:35;13.30;;;4.22;;
48963;SDS011;34776;48.180;16.420;2023-03-14T10:18:02;9.38;;;4.05;;
48963;SDS011;34776;48.180;16.420;2023-03-14T10:23:00;190.05;;;17.35;;
48963;SDS011;34776;48.180;16.420;2023-03-14T10:26:01;81.78;;;11.65;;
48963;SDS011;34776;48.180;16.420;2023-03-14T10:28:38;67.55;;;9.20;;
48963;SDS011;34776;48.180;16.420;2023-03-14T10:31:09;165.73;;;17.85;;
48963;SDS011;34776;48.180;16.420;2023-03-14T10:33:35;75.07;;;10.10;;
48963;SDS011;34776;48.180;16.420;2023-03-14T10:36:17;57.50;;;9.40;;
48963;SDS011;34776;48.180;16.420;2023-03-14T10:38:48;38.03;;;7.13;;
48963;SDS011;34776;48.180;16.420;2023-03-14T10:41:15;40.40;;;7.15;;
48963;SDS011;34776;48.180;16.420;2023-03-14T10:43:42;26.60;;;5.97;;
48963;SDS011;34776;48.180;16.420;2023-03-14T10:46:09;13.68;;;4.43;;
48963;SDS011;34776;48.180;16.420;2023-03-14T10:48:38;13.80;;;5.43;;
48963;SDS011;34776;48.180;16.420;2023-03-14T10:51:09;10.10;;;5.43;;
48963;SDS011;34776;48.180;16.420;2023-03-14T10:56:13;10.50;;;3.13;;
48963;SDS011;34776;48.180;16.420;2023-03-14T10:58:41;2.45;;;1.80;;
48963;SDS011;34776;48.180;16.420;2023-03-14T11:04:12;3.78;;;1.23;;
48963;SDS011;34776;48.180;16.420;2023-03-14T11:11:59;8.00;;;1.65;;
48963;SDS011;34776;48.180;16.420;2023-03-14T11:14:36;3.72;;;1.10;;
48963;SDS011;34776;48.180;16.420;2023-03-14T11:25:31;5.22;;;1.45;;
48963;SDS011;34776;48.180;16.420;2023-03-14T11:28:15;2.80;;;0.93;;
48963;SDS011;34776;48.180;16.420;2023-03-14T11:30:49;1.63;;;0.98;;
48963;SDS011;34776;48.180;16.420;2023-03-14T11:36:04;2.53;;;1.00;;
48963;SDS011;34776;48.180;16.420;2023-03-14T11:41:01;1.85;;;1.08;;
48963;SDS011;34776;48.180;16.420;2023-03-14T11:43:32;1.40;;;0.70;;
48963;SDS011;34776;48.180;16.420;2023-03-14T11:46:03;2.83;;;1.30;;
48963;SDS011;34776;48.180;16.420;2023-03-14T11:48:35;2.80;;;1.02;;
48963;SDS011;34776;48.180;16.420;2023-03-14T11:51:19;6.95;;;1.23;;
48963;SDS011;34776;48.180;16.420;2023-03-14T12:02:44;0.60;;;0.52;;
48963;SDS011;34776;48.180;16.420;2023-03-14T12:05:38;3.97;;;0.90;;
48963;SDS011;34776;48.180;16.420;2023-03-14T12:10:43;1.25;;;1.00;;
48963;SDS011;34776;48.180;16.420;2023-03-14T12:13:14;2.92;;;1.45;;
48963;SDS011;34776;48.180;16.420;2023-03-14T12:15:42;7.22;;;1.25;;
48963;SDS011;34776;48.180;16.420;2023-03-14T12:18:20;1.45;;;0.88;;
48963;SDS011;34776;48.180;16.420;2023-03-14T12:20:54;3.88;;;0.88;;
48963;SDS011;34776;48.180;16.420;2023-03-14T12:23:23;1.88;;;0.88;;
48963;SDS011;34776;48.180;16.420;2023-03-14T12:26:05;2.17;;;0.95;;
48963;SDS011;34776;48.180;16.420;2023-03-14T12:28:32;3.33;;;0.88;;
48963;SDS011;34776;48.180;16.420;2023-03-14T12:31:20;1.85;;;1.30;;
48963;SDS011;34776;48.180;16.420;2023-03-14T12:45:37;1.73;;;1.00;;
48963;SDS011;34776;48.180;16.420;2023-03-14T12:47:49;12.60;;;1.27;;
48963;SDS011;34776;48.180;16.420;2023-03-14T12:50:29;2.30;;;1.00;;
48963;SDS011;34776;48.180;16.420;2023-03-14T12:56:42;3.13;;;0.95;;
48963;SDS011;34776;48.180;16.420;2023-03-14T12:59:28;2.42;;;0.90;;
48963;SDS011;34776;48.180;16.420;2023-03-14T13:01:55;3.10;;;0.90;;
48963;SDS011;34776;48.180;16.420;2023-03-14T13:05:08;4.32;;;1.00;;
48963;SDS011;34776;48.180;16.420;2023-03-14T13:07:38;2.17;;;0.80;;
48963;SDS011;34776;48.180;16.420;2023-03-14T13:10:38;3.22;;;2.05;;
48963;SDS011;34776;48.180;16.420;2023-03-14T13:13:22;6.80;;;2.70;;
48963;SDS011;34776;48.180;16.420;2023-03-14T13:15:58;3.33;;;1.42;;
48963;SDS011;34776;48.180;16.420;2023-03-14T13:18:39;16.67;;;1.83;;
48963;SDS011;34776;48.180;16.420;2023-03-14T13:21:07;7.53;;;1.50;;
48963;SDS011;34776;48.180;16.420;2023-03-14T13:23:53;8.40;;;1.60;;
48963;SDS011;34776;48.180;16.420;2023-03-14T13:26:21;4.25;;;1.70;;
48963;SDS011;34776;48.180;16.420;2023-03-14T13:28:49;2.40;;;1.20;;
48963;SDS011;34776;48.180;16.420;2023-03-14T13:31:20;7.13;;;2.50;;
48963;SDS011;34776;48.180;16.420;2023-03-14T13:34:09;1.33;;;1.10;;
48963;SDS011;34776;48.180;16.420;2023-03-14T13:36:35;53.30;;;6.25;;
48963;SDS011;34776;48.180;16.420;2023-03-14T13:39:01;2.17;;;1.25;;
48963;SDS011;34776;48.180;16.420;2023-03-14T13:41:28;4.72;;;1.05;;
48963;SDS011;34776;48.180;16.420;2023-03-14T13:43:58;4.97;;;1.02;;
48963;SDS011;34776;48.180;16.420;2023-03-14T13:46:29;7.28;;;1.45;;
48963;SDS011;34776;48.180;16.420;2023-03-14T13:48:58;2.97;;;0.80;;
48963;SDS011;34776;48.180;16.420;2023-03-14T13:51:26;4.00;;;0.70;;
48963;SDS011;34776;48.180;16.420;2023-03-14T13:53:57;5.00;;;2.88;;
48963;SDS011;34776;48.180;16.420;2023-03-14T13:56:28;2.47;;;1.17;;
48963;SDS011;34776;48.180;16.420;2023-03-14T13:58:56;7.55;;;2.08;;
48963;SDS011;34776;48.180;16.420;2023-03-14T14:01:23;3.80;;;1.10;;
48963;SDS011;34776;48.180;16.420;2023-03-14T14:03:56;37.70;;;3.70;;
48963;SDS011;34776;48.180;16.420;2023-03-14T14:06:27;24.98;;;3.60;;
48963;SDS011;34776;48.180;16.420;2023-03-14T14:12:19;24.60;;;3.95;;
48963;SDS011;34776;48.180;16.420;2023-03-14T14:14:32;19.45;;;2.60;;
48963;SDS011;34776;48.180;16.420;2023-03-14T14:17:01;3.25;;;1.35;;
48963;SDS011;34776;48.180;16.420;2023-03-14T14:19:30;28.08;;;3.75;;
48963;SDS011;34776;48.180;16.420;2023-03-14T14:21:58;7.70;;;1.67;;
48963;SDS011;34776;48.180;16.420;2023-03-14T14:24:24;3.50;;;1.15;;
48963;SDS011;34776;48.180;16.420;2023-03-14T14:26:59;17.67;;;2.72;;
48963;SDS011;34776;48.180;16.420;2023-03-14T14:30:00;4.00;;;1.55;;
48963;SDS011;34776;48.180;16.420;2023-03-14T14:32:34;2.92;;;1.00;;
48963;SDS011;34776;48.180;16.420;2023-03-14T14:35:02;19.77;;;1.83;;
48963;SDS011;34776;48.180;16.420;2023-03-14T14:37:32;10.48;;;1.67;;
48963;SDS011;34776;48.180;16.420;2023-03-14T14:40:19;1.92;;;0.95;;
48963;SDS011;34776;48.180;16.420;2023-03-14T14:42:47;2.58;;;0.90;;
48963;SDS011;34776;48.180;16.420;2023-03-14T14:45:18;1.02;;;0.93;;
48963;SDS011;34776;48.180;16.420;2023-03-14T14:47:52;0.98;;;0.90;;
48963;SDS011;34776;48.180;16.420;2023-03-14T14:51:05;1.80;;;0.90;;
48963;SDS011;34776;48.180;16.420;2023-03-14T14:55:50;5.60;;;1.60;;
48963;SDS011;34776;48.180;16.420;2023-03-14T14:58:18;1.65;;;1.20;;
48963;SDS011;34776;48.180;16.420;2023-03-14T15:00:56;1.10;;;0.90;;
48963;SDS011;34776;48.180;16.420;2023-03-14T15:03:25;2.45;;;1.13;;
48963;SDS011;34776;48.180;16.420;2023-03-14T15:05:52;1.95;;;1.33;;
48963;SDS011;34776;48.180;16.420;2023-03-14T15:08:20;1.70;;;1.15;;
48963;SDS011;34776;48.180;16.420;2023-03-14T15:10:46;2.08;;;1.27;;
48963;SDS011;34776;48.180;16.420;2023-03-14T15:13:11;1.35;;;1.15;;
48963;SDS011;34776;48.180;16.420;2023-03-14T15:15:36;2.58;;;1.60;;
48963;SDS011;34776;48.180;16.420;2023-03-14T15:18:02;1.50;;;1.30;;
48963;SDS011;34776;48.180;16.420;2023-03-14T15:20:27;3.38;;;1.40;;
48963;SDS011;34776;48.180;16.420;2023-03-14T15:22:53;3.05;;;1.58;;
48963;SDS011;34776;48.180;16.420;2023-03-14T15:25:19;3.40;;;1.92;;
48963;SDS011;34776;48.180;16.420;2023-03-14T15:27:44;3.30;;;2.40;;
48963;SDS011;34776;48.180;16.420;2023-03-14T15:30:11;3.80;;;2.20;;
48963;SDS011;34776;48.180;16.420;2023-03-14T15:32:38;4.55;;;2.55;;
48963;SDS011;34776;48.180;16.420;2023-03-14T15:35:03;2.55;;;2.10;;
48963;SDS011;34776;48.180;16.420;2023-03-14T15:37:29;6.80;;;2.13;;
48963;SDS011;34776;48.180;16.420;2023-03-14T15:39:55;3.20;;;2.58;;
48963;SDS011;34776;48.180;16.420;2023-03-14T15:42:22;3.60;;;2.40;;
48963;SDS011;34776;48.180;16.420;2023-03-14T15:44:48;5.07;;;2.40;;
48963;SDS011;34776;48.180;16.420;2023-03-14T15:47:14;3.03;;;2.00;;
48963;SDS011;34776;48.180;16.420;2023-03-14T15:49:39;2.83;;;2.40;;
48963;SDS011;34776;48.180;16.420;2023-03-14T15:52:04;3.00;;;2.60;;
48963;SDS011;34776;48.180;16.420;2023-03-14T15:54:30;3.90;;;2.78;;
48963;SDS011;34776;48.180;16.420;2023-03-14T15:56:55;3.83;;;3.10;;